sensor_id;sensor_type;location;lat;lon;timestamp;P1;durP1;ratioP1;P2;durP2;ratioP2
830;SDS011;397;50.564;7.272;2024-03-08T00:00:05;23.43;;;16.90;;
830;SDS011;397;50.564;7.272;2024-03-08T00:02:34;21.87;;;16.20;;
830;SDS011;397;50.564;7.272;2024-03-08T00:05:01;24.03;;;17.77;;
830;SDS011;397;50.564;7.272;2024-03-08T00:07:28;21.53;;;16.60;;
830;SDS011;397;50.564;7.272;2024-03-08T00:09:56;20.53;;;17.20;;
830;SDS011;397;50.564;7.272;2024-03-08T00:12:23;26.30;;;17.93;;
830;SDS011;397;50.564;7.272;2024-03-08T00:14:52;21.57;;;17.40;;
830;SDS011;397;50.564;7.272;2024-03-08T00:17:21;21.47;;;16.47;;
830;SDS011;397;50.564;7.272;2024-03-08T00:19:50;23.03;;;17.87;;
830;SDS011;397;50.564;7.272;2024-03-08T00:22:17;22.07;;;17.70;;
830;SDS011;397;50.564;7.272;2024-03-08T00:24:44;18.87;;;13.83;;
830;SDS011;397;50.564;7.272;2024-03-08T00:27:11;27.70;;;17.57;;
830;SDS011;397;50.564;7.272;2024-03-08T00:29:39;20.60;;;15.90;;
830;SDS011;397;50.564;7.272;2024-03-08T00:32:06;20.50;;;16.63;;
830;SDS011;397;50.564;7.272;2024-03-08T00:34:37;19.90;;;16.50;;
830;SDS011;397;50.564;7.272;2024-03-08T00:37:04;24.97;;;17.63;;
830;SDS011;397;50.564;7.272;2024-03-08T00:39:31;19.43;;;15.93;;
830;SDS011;397;50.564;7.272;2024-03-08T00:41:59;23.70;;;17.27;;
830;SDS011;397;50.564;7.272;2024-03-08T00:44:26;20.23;;;15.50;;
830;SDS011;397;50.564;7.272;2024-03-08T00:46:53;20.70;;;16.60;;
830;SDS011;397;50.564;7.272;2024-03-08T00:49:20;21.13;;;15.80;;
830;SDS011;397;50.564;7.272;2024-03-08T00:51:49;22.73;;;15.77;;
830;SDS011;397;50.564;7.272;2024-03-08T00:54:16;24.27;;;17.93;;
830;SDS011;397;50.564;7.272;2024-03-08T00:56:43;24.77;;;15.40;;
830;SDS011;397;50.564;7.272;2024-03-08T00:59:12;24.20;;;17.90;;
830;SDS011;397;50.564;7.272;2024-03-08T01:01:40;21.53;;;16.27;;
830;SDS011;397;50.564;7.272;2024-03-08T01:04:08;26.23;;;16.97;;
830;SDS011;397;50.564;7.272;2024-03-08T01:06:35;24.13;;;16.87;;
830;SDS011;397;50.564;7.272;2024-03-08T01:09:02;21.03;;;16.70;;
830;SDS011;397;50.564;7.272;2024-03-08T01:11:29;24.90;;;19.27;;
830;SDS011;397;50.564;7.272;2024-03-08T01:13:57;20.33;;;17.30;;
830;SDS011;397;50.564;7.272;2024-03-08T01:16:24;24.10;;;17.17;;
830;SDS011;397;50.564;7.272;2024-03-08T01:18:51;24.90;;;17.60;;
830;SDS011;397;50.564;7.272;2024-03-08T01:21:18;20.33;;;15.93;;
830;SDS011;397;50.564;7.272;2024-03-08T01:23:46;20.03;;;15.57;;
830;SDS011;397;50.564;7.272;2024-03-08T01:26:13;25.77;;;17.90;;
830;SDS011;397;50.564;7.272;2024-03-08T01:28:41;21.80;;;17.00;;
830;SDS011;397;50.564;7.272;2024-03-08T01:31:08;22.10;;;16.83;;
830;SDS011;397;50.564;7.272;2024-03-08T01:33:36;20.13;;;16.70;;
830;SDS011;397;50.564;7.272;2024-03-08T01:36:03;23.40;;;15.93;;
830;SDS011;397;50.564;7.272;2024-03-08T01:38:31;22.47;;;16.90;;
830;SDS011;397;50.564;7.272;2024-03-08T01:40:58;20.47;;;16.50;;
830;SDS011;397;50.564;7.272;2024-03-08T01:43:26;24.53;;;17.80;;
830;SDS011;397;50.564;7.272;2024-03-08T01:46:00;21.57;;;17.57;;
830;SDS011;397;50.564;7.272;2024-03-08T01:48:26;21.67;;;18.07;;
830;SDS011;397;50.564;7.272;2024-03-08T01:50:55;24.77;;;17.50;;
830;SDS011;397;50.564;7.272;2024-03-08T01:53:22;24.40;;;16.80;;
830;SDS011;397;50.564;7.272;2024-03-08T01:55:52;22.37;;;18.40;;
830;SDS011;397;50.564;7.272;2024-03-08T01:58:19;26.80;;;19.07;;
830;SDS011;397;50.564;7.272;2024-03-08T02:00:48;23.00;;;17.17;;
830;SDS011;397;50.564;7.272;2024-03-08T02:03:16;25.00;;;17.83;;
830;SDS011;397;50.564;7.272;2024-03-08T02:05:43;20.67;;;16.37;;
830;SDS011;397;50.564;7.272;2024-03-08T02:08:10;23.00;;;19.07;;
830;SDS011;397;50.564;7.272;2024-03-08T02:10:41;25.80;;;15.77;;
830;SDS011;397;50.564;7.272;2024-03-08T02:13:10;23.00;;;17.50;;
830;SDS011;397;50.564;7.272;2024-03-08T02:15:53;22.00;;;17.57;;
830;SDS011;397;50.564;7.272;2024-03-08T02:18:21;21.33;;;17.77;;
830;SDS011;397;50.564;7.272;2024-03-08T02:20:49;22.77;;;16.60;;
830;SDS011;397;50.564;7.272;2024-03-08T02:23:19;26.30;;;17.63;;
830;SDS011;397;50.564;7.272;2024-03-08T02:25:46;23.53;;;16.33;;
830;SDS011;397;50.564;7.272;2024-03-08T02:28:14;22.57;;;17.83;;
830;SDS011;397;50.564;7.272;2024-03-08T02:30:41;23.80;;;17.57;;
830;SDS011;397;50.564;7.272;2024-03-08T02:33:08;24.57;;;18.00;;
830;SDS011;397;50.564;7.272;2024-03-08T02:35:36;26.80;;;18.10;;
830;SDS011;397;50.564;7.272;2024-03-08T02:38:03;27.93;;;17.90;;
830;SDS011;397;50.564;7.272;2024-03-08T02:40:32;26.13;;;18.30;;
830;SDS011;397;50.564;7.272;2024-03-08T02:42:59;22.60;;;18.80;;
830;SDS011;397;50.564;7.272;2024-03-08T02:45:26;24.83;;;18.10;;
830;SDS011;397;50.564;7.272;2024-03-08T02:47:54;23.00;;;16.03;;
830;SDS011;397;50.564;7.272;2024-03-08T02:50:22;26.03;;;18.77;;
830;SDS011;397;50.564;7.272;2024-03-08T02:52:49;21.07;;;16.17;;
830;SDS011;397;50.564;7.272;2024-03-08T02:55:17;24.10;;;18.87;;
830;SDS011;397;50.564;7.272;2024-03-08T02:57:44;25.37;;;18.30;;
830;SDS011;397;50.564;7.272;2024-03-08T03:00:13;21.90;;;17.00;;
830;SDS011;397;50.564;7.272;2024-03-08T03:02:42;23.17;;;18.30;;
830;SDS011;397;50.564;7.272;2024-03-08T03:05:09;23.33;;;17.63;;
830;SDS011;397;50.564;7.272;2024-03-08T03:07:37;29.57;;;18.80;;
830;SDS011;397;50.564;7.272;2024-03-08T03:10:05;27.43;;;18.93;;
830;SDS011;397;50.564;7.272;2024-03-08T03:12:33;25.90;;;18.30;;
830;SDS011;397;50.564;7.272;2024-03-08T03:15:00;22.67;;;18.13;;
830;SDS011;397;50.564;7.272;2024-03-08T03:17:27;21.97;;;17.60;;
830;SDS011;397;50.564;7.272;2024-03-08T03:19:55;25.03;;;19.47;;
830;SDS011;397;50.564;7.272;2024-03-08T03:22:22;25.50;;;18.00;;
830;SDS011;397;50.564;7.272;2024-03-08T03:24:51;23.97;;;17.37;;
830;SDS011;397;50.564;7.272;2024-03-08T03:27:19;29.50;;;20.17;;
830;SDS011;397;50.564;7.272;2024-03-08T03:29:46;24.70;;;18.20;;
830;SDS011;397;50.564;7.272;2024-03-08T03:32:15;27.73;;;19.23;;
830;SDS011;397;50.564;7.272;2024-03-08T03:34:44;26.83;;;20.17;;
830;SDS011;397;50.564;7.272;2024-03-08T03:37:11;25.27;;;18.30;;
830;SDS011;397;50.564;7.272;2024-03-08T03:39:39;25.20;;;18.20;;
830;SDS011;397;50.564;7.272;2024-03-08T03:42:17;26.50;;;18.03;;
830;SDS011;397;50.564;7.272;2024-03-08T03:44:45;24.47;;;17.80;;
830;SDS011;397;50.564;7.272;2024-03-08T03:47:13;22.30;;;17.23;;
830;SDS011;397;50.564;7.272;2024-03-08T03:49:41;26.40;;;18.53;;
830;SDS011;397;50.564;7.272;2024-03-08T03:52:09;23.13;;;17.80;;
830;SDS011;397;50.564;7.272;2024-03-08T03:54:37;26.53;;;17.67;;
830;SDS011;397;50.564;7.272;2024-03-08T03:57:04;26.20;;;17.53;;
830;SDS011;397;50.564;7.272;2024-03-08T03:59:33;26.83;;;18.30;;
830;SDS011;397;50.564;7.272;2024-03-08T04:02:01;24.30;;;17.93;;
830;SDS011;397;50.564;7.272;2024-03-08T04:04:30;24.83;;;18.40;;
830;SDS011;397;50.564;7.272;2024-03-08T04:06:57;23.97;;;18.50;;
830;SDS011;397;50.564;7.272;2024-03-08T04:09:24;26.33;;;18.00;;
830;SDS011;397;50.564;7.272;2024-03-08T04:11:51;27.87;;;18.83;;
830;SDS011;397;50.564;7.272;2024-03-08T04:14:20;25.10;;;19.37;;
830;SDS011;397;50.564;7.272;2024-03-08T04:16:49;26.43;;;17.83;;
830;SDS011;397;50.564;7.272;2024-03-08T04:19:16;23.10;;;17.40;;
830;SDS011;397;50.564;7.272;2024-03-08T04:21:43;23.80;;;16.50;;
830;SDS011;397;50.564;7.272;2024-03-08T04:24:10;23.60;;;16.67;;
830;SDS011;397;50.564;7.272;2024-03-08T04:26:38;27.40;;;18.90;;
830;SDS011;397;50.564;7.272;2024-03-08T04:29:05;22.80;;;17.10;;
830;SDS011;397;50.564;7.272;2024-03-08T04:31:33;25.97;;;17.17;;
830;SDS011;397;50.564;7.272;2024-03-08T04:34:00;26.03;;;19.80;;
830;SDS011;397;50.564;7.272;2024-03-08T04:36:27;25.40;;;20.33;;
830;SDS011;397;50.564;7.272;2024-03-08T04:38:54;26.03;;;18.83;;
830;SDS011;397;50.564;7.272;2024-03-08T04:41:22;26.47;;;18.57;;
830;SDS011;397;50.564;7.272;2024-03-08T04:43:49;23.10;;;16.83;;
830;SDS011;397;50.564;7.272;2024-03-08T04:46:16;25.17;;;17.20;;
830;SDS011;397;50.564;7.272;2024-03-08T04:48:44;35.73;;;19.47;;
830;SDS011;397;50.564;7.272;2024-03-08T04:51:11;31.30;;;19.50;;
830;SDS011;397;50.564;7.272;2024-03-08T04:53:38;23.83;;;17.90;;
830;SDS011;397;50.564;7.272;2024-03-08T04:56:06;28.30;;;19.17;;
830;SDS011;397;50.564;7.272;2024-03-08T04:58:38;26.00;;;19.73;;
830;SDS011;397;50.564;7.272;2024-03-08T05:01:02;22.57;;;17.67;;
830;SDS011;397;50.564;7.272;2024-03-08T05:03:29;21.37;;;17.17;;
830;SDS011;397;50.564;7.272;2024-03-08T05:05:57;30.57;;;19.07;;
830;SDS011;397;50.564;7.272;2024-03-08T05:08:24;24.33;;;17.70;;
830;SDS011;397;50.564;7.272;2024-03-08T05:10:52;28.33;;;17.60;;
830;SDS011;397;50.564;7.272;2024-03-08T05:13:19;23.60;;;17.87;;
830;SDS011;397;50.564;7.272;2024-03-08T05:15:49;26.93;;;19.90;;
830;SDS011;397;50.564;7.272;2024-03-08T05:18:20;27.77;;;18.90;;
830;SDS011;397;50.564;7.272;2024-03-08T05:20:48;24.93;;;19.30;;
830;SDS011;397;50.564;7.272;2024-03-08T05:23:15;25.00;;;16.93;;
830;SDS011;397;50.564;7.272;2024-03-08T05:25:42;26.77;;;18.60;;
830;SDS011;397;50.564;7.272;2024-03-08T05:28:09;27.50;;;18.50;;
830;SDS011;397;50.564;7.272;2024-03-08T05:30:37;28.70;;;18.67;;
830;SDS011;397;50.564;7.272;2024-03-08T05:33:05;27.17;;;20.80;;
830;SDS011;397;50.564;7.272;2024-03-08T05:35:33;27.73;;;19.47;;
830;SDS011;397;50.564;7.272;2024-03-08T05:38:00;26.70;;;19.67;;
830;SDS011;397;50.564;7.272;2024-03-08T05:40:28;25.73;;;19.97;;
830;SDS011;397;50.564;7.272;2024-03-08T05:42:57;24.93;;;19.33;;
830;SDS011;397;50.564;7.272;2024-03-08T05:45:26;27.40;;;19.93;;
830;SDS011;397;50.564;7.272;2024-03-08T05:47:53;23.67;;;18.03;;
830;SDS011;397;50.564;7.272;2024-03-08T05:50:20;32.70;;;20.07;;
830;SDS011;397;50.564;7.272;2024-03-08T05:52:48;28.97;;;20.50;;
830;SDS011;397;50.564;7.272;2024-03-08T05:55:15;26.30;;;18.03;;
830;SDS011;397;50.564;7.272;2024-03-08T05:57:43;25.67;;;18.53;;
830;SDS011;397;50.564;7.272;2024-03-08T06:00:10;26.20;;;18.57;;
830;SDS011;397;50.564;7.272;2024-03-08T06:02:38;25.23;;;19.80;;
830;SDS011;397;50.564;7.272;2024-03-08T06:05:08;33.50;;;21.80;;
830;SDS011;397;50.564;7.272;2024-03-08T06:07:36;26.37;;;18.97;;
830;SDS011;397;50.564;7.272;2024-03-08T06:10:06;27.60;;;18.93;;
830;SDS011;397;50.564;7.272;2024-03-08T06:12:36;32.90;;;23.27;;
830;SDS011;397;50.564;7.272;2024-03-08T06:15:08;26.13;;;20.40;;
830;SDS011;397;50.564;7.272;2024-03-08T06:17:36;27.30;;;20.30;;
830;SDS011;397;50.564;7.272;2024-03-08T06:20:04;32.03;;;20.30;;
830;SDS011;397;50.564;7.272;2024-03-08T06:22:33;29.67;;;21.23;;
830;SDS011;397;50.564;7.272;2024-03-08T06:25:00;28.30;;;19.17;;
830;SDS011;397;50.564;7.272;2024-03-08T06:27:27;23.97;;;17.83;;
830;SDS011;397;50.564;7.272;2024-03-08T06:29:54;27.60;;;21.07;;
830;SDS011;397;50.564;7.272;2024-03-08T06:32:22;28.70;;;20.67;;
830;SDS011;397;50.564;7.272;2024-03-08T06:34:49;27.50;;;18.63;;
830;SDS011;397;50.564;7.272;2024-03-08T06:37:17;29.33;;;21.50;;
830;SDS011;397;50.564;7.272;2024-03-08T06:39:46;26.10;;;20.40;;
830;SDS011;397;50.564;7.272;2024-03-08T06:42:13;38.70;;;24.50;;
830;SDS011;397;50.564;7.272;2024-03-08T06:44:41;26.47;;;20.53;;
830;SDS011;397;50.564;7.272;2024-03-08T06:47:09;28.57;;;19.53;;
830;SDS011;397;50.564;7.272;2024-03-08T06:49:37;23.43;;;18.63;;
830;SDS011;397;50.564;7.272;2024-03-08T06:52:04;27.27;;;20.07;;
830;SDS011;397;50.564;7.272;2024-03-08T06:54:32;27.97;;;19.90;;
830;SDS011;397;50.564;7.272;2024-03-08T06:57:00;27.30;;;19.90;;
830;SDS011;397;50.564;7.272;2024-03-08T06:59:27;25.13;;;19.20;;
830;SDS011;397;50.564;7.272;2024-03-08T07:01:54;26.27;;;18.57;;
830;SDS011;397;50.564;7.272;2024-03-08T07:04:22;27.00;;;19.97;;
830;SDS011;397;50.564;7.272;2024-03-08T07:06:51;24.70;;;20.50;;
830;SDS011;397;50.564;7.272;2024-03-08T07:09:18;27.43;;;20.80;;
830;SDS011;397;50.564;7.272;2024-03-08T07:11:46;27.63;;;20.30;;
830;SDS011;397;50.564;7.272;2024-03-08T07:14:13;25.43;;;19.87;;
830;SDS011;397;50.564;7.272;2024-03-08T07:16:41;26.43;;;20.63;;
830;SDS011;397;50.564;7.272;2024-03-08T07:19:09;24.27;;;18.43;;
830;SDS011;397;50.564;7.272;2024-03-08T07:21:36;24.83;;;18.93;;
830;SDS011;397;50.564;7.272;2024-03-08T07:24:04;24.83;;;19.47;;
830;SDS011;397;50.564;7.272;2024-03-08T07:26:32;24.67;;;17.37;;
830;SDS011;397;50.564;7.272;2024-03-08T07:29:00;24.40;;;19.03;;
830;SDS011;397;50.564;7.272;2024-03-08T07:31:27;23.63;;;18.80;;
830;SDS011;397;50.564;7.272;2024-03-08T07:34:12;20.70;;;18.50;;
830;SDS011;397;50.564;7.272;2024-03-08T07:36:39;23.50;;;18.97;;
830;SDS011;397;50.564;7.272;2024-03-08T07:39:07;22.90;;;17.90;;
830;SDS011;397;50.564;7.272;2024-03-08T07:41:36;22.70;;;18.10;;
830;SDS011;397;50.564;7.272;2024-03-08T07:44:03;29.10;;;20.07;;
830;SDS011;397;50.564;7.272;2024-03-08T07:46:30;22.90;;;18.57;;
830;SDS011;397;50.564;7.272;2024-03-08T07:48:57;24.20;;;19.90;;
830;SDS011;397;50.564;7.272;2024-03-08T07:51:25;23.77;;;19.60;;
830;SDS011;397;50.564;7.272;2024-03-08T07:53:53;20.23;;;17.40;;
830;SDS011;397;50.564;7.272;2024-03-08T07:56:21;25.93;;;17.53;;
830;SDS011;397;50.564;7.272;2024-03-08T07:58:48;23.20;;;19.60;;
830;SDS011;397;50.564;7.272;2024-03-08T08:01:20;25.10;;;21.50;;
830;SDS011;397;50.564;7.272;2024-03-08T08:03:45;23.53;;;18.33;;
830;SDS011;397;50.564;7.272;2024-03-08T08:06:12;24.23;;;19.50;;
830;SDS011;397;50.564;7.272;2024-03-08T08:08:44;24.50;;;20.60;;
830;SDS011;397;50.564;7.272;2024-03-08T08:11:11;23.47;;;18.93;;
830;SDS011;397;50.564;7.272;2024-03-08T08:13:39;23.77;;;19.90;;
830;SDS011;397;50.564;7.272;2024-03-08T08:16:06;21.57;;;19.23;;
830;SDS011;397;50.564;7.272;2024-03-08T08:18:33;25.23;;;19.10;;
830;SDS011;397;50.564;7.272;2024-03-08T08:21:02;25.13;;;20.80;;
830;SDS011;397;50.564;7.272;2024-03-08T08:23:32;23.83;;;20.10;;
830;SDS011;397;50.564;7.272;2024-03-08T08:25:59;21.77;;;18.90;;
830;SDS011;397;50.564;7.272;2024-03-08T08:28:27;23.40;;;20.90;;
830;SDS011;397;50.564;7.272;2024-03-08T08:30:55;21.93;;;19.63;;
830;SDS011;397;50.564;7.272;2024-03-08T08:33:22;23.73;;;20.80;;
830;SDS011;397;50.564;7.272;2024-03-08T08:35:51;23.70;;;20.50;;
830;SDS011;397;50.564;7.272;2024-03-08T08:38:20;22.07;;;19.43;;
830;SDS011;397;50.564;7.272;2024-03-08T08:40:47;22.50;;;20.20;;
830;SDS011;397;50.564;7.272;2024-03-08T08:43:14;22.20;;;19.77;;
830;SDS011;397;50.564;7.272;2024-03-08T08:45:41;23.17;;;20.90;;
830;SDS011;397;50.564;7.272;2024-03-08T08:48:09;23.90;;;20.30;;
830;SDS011;397;50.564;7.272;2024-03-08T08:50:37;23.80;;;21.13;;
830;SDS011;397;50.564;7.272;2024-03-08T08:53:04;22.33;;;19.97;;
830;SDS011;397;50.564;7.272;2024-03-08T08:55:33;20.40;;;18.30;;
830;SDS011;397;50.564;7.272;2024-03-08T08:58:02;21.07;;;18.87;;
830;SDS011;397;50.564;7.272;2024-03-08T09:00:29;23.23;;;20.53;;
830;SDS011;397;50.564;7.272;2024-03-08T09:02:57;20.67;;;18.67;;
830;SDS011;397;50.564;7.272;2024-03-08T09:05:25;21.27;;;19.03;;
830;SDS011;397;50.564;7.272;2024-03-08T09:07:52;21.13;;;18.87;;
830;SDS011;397;50.564;7.272;2024-03-08T09:10:20;20.53;;;18.43;;
830;SDS011;397;50.564;7.272;2024-03-08T09:12:47;23.10;;;19.40;;
830;SDS011;397;50.564;7.272;2024-03-08T09:15:15;20.63;;;18.27;;
830;SDS011;397;50.564;7.272;2024-03-08T09:17:43;20.27;;;18.17;;
830;SDS011;397;50.564;7.272;2024-03-08T09:20:11;20.20;;;17.40;;
830;SDS011;397;50.564;7.272;2024-03-08T09:22:44;17.83;;;16.00;;
830;SDS011;397;50.564;7.272;2024-03-08T09:25:12;18.30;;;15.80;;
830;SDS011;397;50.564;7.272;2024-03-08T09:27:39;21.00;;;17.30;;
830;SDS011;397;50.564;7.272;2024-03-08T09:30:07;19.40;;;16.40;;
830;SDS011;397;50.564;7.272;2024-03-08T09:32:34;18.57;;;16.60;;
830;SDS011;397;50.564;7.272;2024-03-08T09:35:03;17.83;;;15.97;;
830;SDS011;397;50.564;7.272;2024-03-08T09:37:32;21.03;;;15.33;;
830;SDS011;397;50.564;7.272;2024-03-08T09:40:00;18.93;;;14.60;;
830;SDS011;397;50.564;7.272;2024-03-08T09:42:29;18.63;;;15.10;;
830;SDS011;397;50.564;7.272;2024-03-08T09:44:56;20.80;;;16.37;;
830;SDS011;397;50.564;7.272;2024-03-08T09:47:24;20.17;;;16.07;;
830;SDS011;397;50.564;7.272;2024-03-08T09:49:53;17.10;;;14.27;;
830;SDS011;397;50.564;7.272;2024-03-08T09:52:21;20.90;;;15.47;;
830;SDS011;397;50.564;7.272;2024-03-08T09:54:48;18.37;;;14.60;;
830;SDS011;397;50.564;7.272;2024-03-08T09:57:16;19.10;;;16.53;;
830;SDS011;397;50.564;7.272;2024-03-08T09:59:43;18.80;;;15.10;;
830;SDS011;397;50.564;7.272;2024-03-08T10:02:15;19.13;;;16.50;;
830;SDS011;397;50.564;7.272;2024-03-08T10:04:42;17.30;;;14.67;;
830;SDS011;397;50.564;7.272;2024-03-08T10:07:12;19.27;;;15.00;;
830;SDS011;397;50.564;7.272;2024-03-08T10:09:39;18.93;;;14.43;;
830;SDS011;397;50.564;7.272;2024-03-08T10:12:08;18.63;;;14.97;;
830;SDS011;397;50.564;7.272;2024-03-08T10:14:38;19.90;;;15.97;;
830;SDS011;397;50.564;7.272;2024-03-08T10:17:05;22.77;;;15.80;;
830;SDS011;397;50.564;7.272;2024-03-08T10:19:33;21.23;;;13.83;;
830;SDS011;397;50.564;7.272;2024-03-08T10:22:00;16.83;;;14.67;;
830;SDS011;397;50.564;7.272;2024-03-08T10:24:27;16.20;;;13.50;;
830;SDS011;397;50.564;7.272;2024-03-08T10:27:01;17.50;;;13.63;;
830;SDS011;397;50.564;7.272;2024-03-08T10:29:32;15.40;;;12.80;;
830;SDS011;397;50.564;7.272;2024-03-08T10:31:59;17.97;;;14.47;;
830;SDS011;397;50.564;7.272;2024-03-08T10:34:26;16.17;;;13.60;;
830;SDS011;397;50.564;7.272;2024-03-08T10:36:55;15.40;;;13.43;;
830;SDS011;397;50.564;7.272;2024-03-08T10:39:24;22.17;;;15.10;;
830;SDS011;397;50.564;7.272;2024-03-08T10:41:53;15.07;;;13.00;;
830;SDS011;397;50.564;7.272;2024-03-08T10:44:26;15.57;;;13.57;;
830;SDS011;397;50.564;7.272;2024-03-08T10:46:57;17.83;;;12.90;;
830;SDS011;397;50.564;7.272;2024-03-08T10:49:25;17.50;;;13.43;;
830;SDS011;397;50.564;7.272;2024-03-08T10:51:49;18.90;;;13.70;;
830;SDS011;397;50.564;7.272;2024-03-08T10:54:18;19.50;;;13.77;;
830;SDS011;397;50.564;7.272;2024-03-08T10:56:47;15.80;;;12.57;;
830;SDS011;397;50.564;7.272;2024-03-08T10:59:17;15.80;;;11.10;;
830;SDS011;397;50.564;7.272;2024-03-08T11:01:45;14.80;;;12.13;;
830;SDS011;397;50.564;7.272;2024-03-08T11:04:12;17.50;;;12.57;;
830;SDS011;397;50.564;7.272;2024-03-08T11:06:42;17.40;;;12.23;;
830;SDS011;397;50.564;7.272;2024-03-08T11:09:27;15.70;;;13.40;;
830;SDS011;397;50.564;7.272;2024-03-08T11:11:42;14.50;;;10.90;;
830;SDS011;397;50.564;7.272;2024-03-08T11:14:42;16.40;;;12.40;;
830;SDS011;397;50.564;7.272;2024-03-08T11:16:40;16.07;;;12.37;;
830;SDS011;397;50.564;7.272;2024-03-08T11:21:37;15.27;;;12.90;;
830;SDS011;397;50.564;7.272;2024-03-08T11:24:13;15.30;;;12.23;;
830;SDS011;397;50.564;7.272;2024-03-08T11:26:38;12.77;;;11.40;;
830;SDS011;397;50.564;7.272;2024-03-08T11:31:51;17.70;;;12.10;;
830;SDS011;397;50.564;7.272;2024-03-08T11:34:19;13.77;;;11.43;;
830;SDS011;397;50.564;7.272;2024-03-08T11:36:47;13.80;;;10.53;;
830;SDS011;397;50.564;7.272;2024-03-08T11:39:16;13.60;;;10.63;;
830;SDS011;397;50.564;7.272;2024-03-08T11:41:43;17.40;;;10.90;;
830;SDS011;397;50.564;7.272;2024-03-08T11:44:12;12.80;;;10.90;;
830;SDS011;397;50.564;7.272;2024-03-08T11:46:41;11.90;;;9.20;;
830;SDS011;397;50.564;7.272;2024-03-08T11:49:10;12.17;;;10.00;;
830;SDS011;397;50.564;7.272;2024-03-08T11:51:38;11.63;;;9.70;;
830;SDS011;397;50.564;7.272;2024-03-08T11:54:06;15.03;;;11.30;;
830;SDS011;397;50.564;7.272;2024-03-08T11:56:33;14.20;;;12.17;;
830;SDS011;397;50.564;7.272;2024-03-08T11:59:00;13.70;;;11.33;;
830;SDS011;397;50.564;7.272;2024-03-08T12:01:28;14.93;;;11.23;;
830;SDS011;397;50.564;7.272;2024-03-08T12:03:55;14.17;;;9.33;;
830;SDS011;397;50.564;7.272;2024-03-08T12:06:27;13.53;;;10.17;;
830;SDS011;397;50.564;7.272;2024-03-08T12:08:55;14.13;;;12.10;;
830;SDS011;397;50.564;7.272;2024-03-08T12:11:22;11.50;;;9.57;;
830;SDS011;397;50.564;7.272;2024-03-08T12:13:50;14.60;;;11.30;;
830;SDS011;397;50.564;7.272;2024-03-08T12:16:18;13.40;;;11.33;;
830;SDS011;397;50.564;7.272;2024-03-08T12:18:45;11.63;;;9.80;;
830;SDS011;397;50.564;7.272;2024-03-08T12:21:13;14.43;;;11.00;;
830;SDS011;397;50.564;7.272;2024-03-08T12:23:42;13.20;;;10.93;;
830;SDS011;397;50.564;7.272;2024-03-08T12:26:13;12.93;;;9.83;;
830;SDS011;397;50.564;7.272;2024-03-08T12:28:42;13.70;;;10.40;;
830;SDS011;397;50.564;7.272;2024-03-08T12:31:14;14.00;;;10.33;;
830;SDS011;397;50.564;7.272;2024-03-08T12:33:49;13.90;;;11.40;;
830;SDS011;397;50.564;7.272;2024-03-08T12:36:17;12.97;;;11.30;;
830;SDS011;397;50.564;7.272;2024-03-08T12:38:49;12.37;;;9.80;;
830;SDS011;397;50.564;7.272;2024-03-08T12:41:15;13.87;;;12.30;;
830;SDS011;397;50.564;7.272;2024-03-08T12:43:44;15.93;;;12.20;;
830;SDS011;397;50.564;7.272;2024-03-08T12:46:17;15.43;;;12.17;;
830;SDS011;397;50.564;7.272;2024-03-08T12:48:46;10.83;;;9.73;;
830;SDS011;397;50.564;7.272;2024-03-08T12:51:14;15.77;;;10.53;;
830;SDS011;397;50.564;7.272;2024-03-08T12:53:42;12.30;;;10.60;;
830;SDS011;397;50.564;7.272;2024-03-08T12:56:13;14.20;;;11.17;;
830;SDS011;397;50.564;7.272;2024-03-08T12:58:42;13.57;;;10.10;;
830;SDS011;397;50.564;7.272;2024-03-08T13:01:09;14.53;;;11.60;;
830;SDS011;397;50.564;7.272;2024-03-08T13:03:36;13.17;;;11.47;;
830;SDS011;397;50.564;7.272;2024-03-08T13:06:04;11.77;;;9.37;;
830;SDS011;397;50.564;7.272;2024-03-08T13:08:35;14.80;;;10.03;;
830;SDS011;397;50.564;7.272;2024-03-08T13:11:04;15.47;;;11.63;;
830;SDS011;397;50.564;7.272;2024-03-08T13:13:33;13.00;;;10.80;;
830;SDS011;397;50.564;7.272;2024-03-08T13:16:02;11.33;;;9.97;;
830;SDS011;397;50.564;7.272;2024-03-08T13:18:31;13.00;;;10.90;;
830;SDS011;397;50.564;7.272;2024-03-08T13:20:59;15.17;;;12.13;;
830;SDS011;397;50.564;7.272;2024-03-08T13:23:28;11.90;;;10.63;;
830;SDS011;397;50.564;7.272;2024-03-08T13:25:56;12.67;;;11.37;;
830;SDS011;397;50.564;7.272;2024-03-08T13:28:24;18.47;;;11.27;;
830;SDS011;397;50.564;7.272;2024-03-08T13:30:53;14.23;;;10.77;;
830;SDS011;397;50.564;7.272;2024-03-08T13:33:21;13.43;;;12.03;;
830;SDS011;397;50.564;7.272;2024-03-08T13:35:49;13.40;;;12.00;;
830;SDS011;397;50.564;7.272;2024-03-08T13:38:17;13.87;;;12.27;;
830;SDS011;397;50.564;7.272;2024-03-08T13:40:46;14.90;;;10.27;;
830;SDS011;397;50.564;7.272;2024-03-08T13:43:15;12.53;;;11.23;;
830;SDS011;397;50.564;7.272;2024-03-08T13:45:42;15.20;;;10.87;;
830;SDS011;397;50.564;7.272;2024-03-08T13:48:10;13.47;;;10.90;;
830;SDS011;397;50.564;7.272;2024-03-08T13:50:39;11.60;;;10.33;;
830;SDS011;397;50.564;7.272;2024-03-08T13:53:08;14.43;;;12.20;;
830;SDS011;397;50.564;7.272;2024-03-08T13:55:36;12.83;;;11.17;;
830;SDS011;397;50.564;7.272;2024-03-08T13:58:03;14.43;;;10.70;;
830;SDS011;397;50.564;7.272;2024-03-08T14:00:32;12.63;;;10.40;;
830;SDS011;397;50.564;7.272;2024-03-08T14:03:00;14.27;;;11.93;;
830;SDS011;397;50.564;7.272;2024-03-08T14:05:27;13.77;;;11.23;;
830;SDS011;397;50.564;7.272;2024-03-08T14:07:54;14.83;;;12.40;;
830;SDS011;397;50.564;7.272;2024-03-08T14:10:21;14.40;;;11.40;;
830;SDS011;397;50.564;7.272;2024-03-08T14:12:49;14.67;;;9.90;;
830;SDS011;397;50.564;7.272;2024-03-08T14:15:16;11.57;;;8.93;;
830;SDS011;397;50.564;7.272;2024-03-08T14:17:44;14.37;;;11.73;;
830;SDS011;397;50.564;7.272;2024-03-08T14:20:13;13.97;;;10.73;;
830;SDS011;397;50.564;7.272;2024-03-08T14:22:40;14.50;;;11.20;;
830;SDS011;397;50.564;7.272;2024-03-08T14:25:07;13.10;;;11.03;;
830;SDS011;397;50.564;7.272;2024-03-08T14:27:36;14.40;;;11.80;;
830;SDS011;397;50.564;7.272;2024-03-08T14:30:04;14.33;;;11.63;;
830;SDS011;397;50.564;7.272;2024-03-08T14:32:33;14.97;;;11.23;;
830;SDS011;397;50.564;7.272;2024-03-08T14:35:00;15.40;;;12.20;;
830;SDS011;397;50.564;7.272;2024-03-08T14:37:27;13.00;;;10.43;;
830;SDS011;397;50.564;7.272;2024-03-08T14:39:55;17.10;;;11.50;;
830;SDS011;397;50.564;7.272;2024-03-08T14:42:23;13.73;;;11.30;;
830;SDS011;397;50.564;7.272;2024-03-08T14:44:51;15.30;;;12.13;;
830;SDS011;397;50.564;7.272;2024-03-08T14:47:20;16.40;;;12.50;;
830;SDS011;397;50.564;7.272;2024-03-08T14:49:48;15.60;;;11.10;;
830;SDS011;397;50.564;7.272;2024-03-08T14:52:15;14.83;;;12.03;;
830;SDS011;397;50.564;7.272;2024-03-08T14:54:54;12.57;;;11.27;;
830;SDS011;397;50.564;7.272;2024-03-08T14:57:22;12.40;;;10.63;;
830;SDS011;397;50.564;7.272;2024-03-08T14:59:49;15.33;;;12.63;;
830;SDS011;397;50.564;7.272;2024-03-08T15:02:17;15.23;;;11.20;;
830;SDS011;397;50.564;7.272;2024-03-08T15:04:48;18.57;;;13.07;;
830;SDS011;397;50.564;7.272;2024-03-08T15:07:17;13.67;;;12.23;;
830;SDS011;397;50.564;7.272;2024-03-08T15:09:47;14.30;;;11.40;;
830;SDS011;397;50.564;7.272;2024-03-08T15:12:13;15.67;;;12.50;;
830;SDS011;397;50.564;7.272;2024-03-08T15:14:41;17.37;;;12.83;;
830;SDS011;397;50.564;7.272;2024-03-08T15:17:10;17.00;;;12.33;;
830;SDS011;397;50.564;7.272;2024-03-08T15:19:39;16.67;;;11.80;;
830;SDS011;397;50.564;7.272;2024-03-08T15:22:06;17.00;;;13.37;;
830;SDS011;397;50.564;7.272;2024-03-08T15:24:33;17.17;;;11.63;;